الصفحة الرئيسية
METAR-TAF:

METAR-TAF

مطار :

لونغياربيين, النرويج

دائرة عرض: 78-15N, خط طول: 015-28E, ارتفاع: 2 متر

مراقبة الطقس الحالي

تاريخ ووقت الإصدار 23 دقيقة قبل الساعة 08:20UTC
ريح 11 عقدة من الجنوب الشرقي
درجة الحرارة -11°درجة مئوية
الرطوبة 72%
ضغط 1033 hPa
الرؤية 10 كم أو أكثر
غيوم قليلة على ارتفاع 3000 قدم

METAR: ENSB 220820Z 13011KT 9999 FEW030 M11/M15 Q1033 NOSIG RMK WIND 1400FT 10010KT

زمن: 09:43 (08:43 UTC)

توقعات

التوقعات صالحة من22 الساعة 06 UTC إلى 23 الساعة 06 UTC
ريح 12 عقدة من الشرق/الجنوب الشرقي
الرؤية 10 كم أو أكثر
غيوم قليلة على ارتفاع 1000 قدم
غيوم متفرقة على ارتفاع 2500 قدم
مؤقت
من 22 الساعة 15 UTC إلى 23 الساعة 06 UTC
ريح 25 عقدة من الشرق/الجنوب الشرقي

TAF: ENSB 2206/2306 11012KT 9999 FEW010 SCT025 TEMPO 2215/2306 12025KT

أرصاد الطقس والتوقعات من أكثر من 4000 مطار (تقارير الطقس للمطار METAR والتنبؤ بالطقس بالمطارTAF).

المحطات المتاحة هي النقط الصفراء والحمراء على الخريطة.

حرك المؤشر فوق النقطة لمعرفة اسم المحطة.

ثم انقر لمعرفة أرصاد وتوقعات الطقس.

لتغيير الخارطة: اضغط على الأزرار الخضراء مع رمز الصليب الأسود للتكبير. على الزر الأخضر مع شرطة للتصغير، أو على الأسهم الخضراء للخرائط المجاورة.


METAR-TAF: